Time;durP1;ratioP1;P1;durP2;ratioP2;P2;SDS_P1;SDS_P2;PMS_P1;PMS_P2;Temp;Humidity;BMP_temperature;BMP_pressure;BME280_temperature;BME280_humidity;BME280_pressure;Samples;Min_cycle;Max_cycle;Signal;HPM_P1;HPM_P2
2022/06/21 04:02:23;;;;;;;4.93;4.07;;;10.70;99.90;;;;;;5139976;23;20047;-73
2022/06/21 04:05:09;;;;;;;7.15;4.90;;;10.70;99.90;;;;;;4989922;28;20051;-74
2022/06/21 04:07:38;;;;;;;7.43;4.93;;;10.70;99.90;;;;;;4994198;28;20065;-74
2022/06/21 04:10:09;;;;;;;5.95;4.90;;;10.70;99.90;;;;;;4993146;28;20042;-74
2022/06/21 04:12:37;;;;;;;7.97;4.30;;;10.80;99.90;;;;;;4973839;28;20078;-75
2022/06/21 04:15:15;;;;;;;8.18;4.55;;;11.00;99.90;;;;;;4974198;28;20548;-75
2022/06/21 04:17:49;;;;;;;6.63;4.88;;;11.00;99.90;;;;;;4974517;28;20042;-73
2022/06/21 04:20:29;;;;;;;5.70;4.28;;;11.00;99.90;;;;;;4974454;28;20027;-73
2022/06/21 04:23:13;;;;;;;6.30;4.53;;;11.00;99.90;;;;;;4974467;28;20445;-73
2022/06/21 04:26:00;;;;;;;5.35;4.15;;;11.00;99.90;;;;;;5005423;28;20551;-73
2022/06/21 04:28:32;;;;;;;5.72;4.25;;;11.10;99.90;;;;;;4974451;28;20142;-73
2022/06/21 04:31:07;;;;;;;5.57;4.50;;;11.20;99.90;;;;;;4974318;28;20036;-73
2022/06/21 04:33:57;;;;;;;7.13;4.40;;;11.30;99.90;;;;;;4974050;28;20039;-73
2022/06/21 04:36:34;;;;;;;7.28;4.35;;;11.40;99.90;;;;;;4974850;28;20047;-73
2022/06/21 04:39:13;;;;;;;6.70;4.47;;;11.50;99.90;;;;;;4974342;28;20110;-73
2022/06/21 04:41:47;;;;;;;4.50;4.03;;;11.40;99.90;;;;;;4973031;28;20382;-73
2022/06/21 04:44:17;;;;;;;6.03;3.63;;;11.40;99.90;;;;;;4973560;28;20054;-73
2022/06/21 04:47:13;;;;;;;10.13;3.75;;;11.40;99.90;;;;;;4973126;28;20035;-73
2022/06/21 04:50:04;;;;;;;5.05;3.30;;;11.50;99.90;;;;;;4973348;28;20038;-73
2022/06/21 04:52:33;;;;;;;5.57;3.60;;;11.50;99.90;;;;;;4970113;28;20519;-73
2022/06/21 04:54:58;;;;;;;5.78;3.75;;;11.50;99.90;;;;;;4972177;28;20043;-73
2022/06/21 04:57:28;;;;;;;6.47;3.78;;;11.70;99.90;;;;;;4972354;28;20043;-73
2022/06/21 05:00:06;;;;;;;4.75;3.50;;;11.80;99.90;;;;;;4973143;28;20031;-75
2022/06/21 05:02:38;;;;;;;3.78;2.85;;;11.90;99.90;;;;;;4971853;28;20583;-75
2022/06/21 05:05:12;;;;;;;4.32;3.20;;;12.10;99.90;;;;;;4972936;28;20039;-75
2022/06/21 05:07:46;;;;;;;4.78;2.90;;;12.20;99.90;;;;;;4972923;28;20034;-75
2022/06/21 05:10:19;;;;;;;4.45;2.70;;;12.40;99.90;;;;;;4972367;28;20035;-75
2022/06/21 05:12:45;;;;;;;5.38;2.78;;;12.70;99.90;;;;;;4973112;28;20032;-76
2022/06/21 05:15:28;;;;;;;3.67;2.60;;;12.90;99.90;;;;;;4973394;28;20039;-75
2022/06/21 05:18:00;;;;;;;5.05;2.92;;;13.10;99.90;;;;;;4972337;28;20031;-75
2022/06/21 05:20:31;;;;;;;5.45;2.85;;;13.30;99.90;;;;;;4972892;28;20043;-75
2022/06/21 05:23:01;;;;;;;3.63;2.90;;;13.40;99.90;;;;;;4973400;28;20090;-75
2022/06/21 05:25:33;;;;;;;4.45;3.20;;;13.60;99.90;;;;;;4973281;28;20376;-75
2022/06/21 05:28:21;;;;;;;3.70;2.72;;;13.80;99.90;;;;;;4972248;28;20036;-75
2022/06/21 05:30:52;;;;;;;3.58;2.78;;;13.90;99.90;;;;;;4973219;28;20036;-75
2022/06/21 05:33:33;;;;;;;4.95;3.50;;;14.00;99.90;;;;;;4973899;28;20130;-75
2022/06/21 05:36:02;;;;;;;5.15;3.30;;;14.00;99.90;;;;;;4972691;28;20035;-75
2022/06/21 05:38:33;;;;;;;3.97;3.30;;;14.20;99.90;;;;;;4971111;28;20043;-75
2022/06/21 05:41:06;;;;;;;4.63;3.30;;;14.10;99.90;;;;;;4971263;28;20174;-75
2022/06/21 05:43:42;;;;;;;4.80;3.20;;;14.10;99.90;;;;;;4972748;28;20086;-75
2022/06/21 05:46:13;;;;;;;5.55;3.15;;;14.10;99.90;;;;;;4972202;28;20032;-75
2022/06/21 05:48:40;;;;;;;3.47;2.75;;;14.10;99.90;;;;;;4975536;28;20453;-75
2022/06/21 05:51:12;;;;;;;3.65;2.67;;;14.20;99.90;;;;;;5006268;28;20039;-75
2022/06/21 05:53:43;;;;;;;4.13;2.83;;;14.20;99.90;;;;;;4977021;28;20540;-75
2022/06/21 05:56:14;;;;;;;3.42;2.83;;;14.30;99.90;;;;;;4976337;28;20094;-75
2022/06/21 05:58:47;;;;;;;4.57;2.53;;;14.40;99.90;;;;;;4976394;28;20493;-75
2022/06/21 06:01:19;;;;;;;12.23;3.17;;;14.60;99.90;;;;;;5007475;28;20069;-75
2022/06/21 06:03:56;;;;;;;5.00;3.03;;;14.70;99.90;;;;;;4976191;28;20043;-75
2022/06/21 06:06:22;;;;;;;5.90;2.97;;;14.80;99.90;;;;;;4975933;28;20537;-75
2022/06/21 06:08:54;;;;;;;5.70;3.20;;;15.00;99.90;;;;;;4975443;28;20155;-75
2022/06/21 06:11:57;;;;;;;3.80;2.80;;;15.10;99.90;;;;;;4975375;28;20042;-75
2022/06/21 06:14:17;;;;;;;4.07;3.10;;;15.20;99.90;;;;;;4976288;28;20039;-75
2022/06/21 06:16:45;;;;;;;5.38;2.63;;;15.30;99.90;;;;;;4977205;28;20124;-75
2022/06/21 06:19:18;;;;;;;4.55;2.80;;;15.40;99.90;;;;;;4980113;28;20121;-74
2022/06/21 06:22:05;;;;;;;3.25;2.40;;;15.70;99.90;;;;;;4977631;28;20038;-75
2022/06/21 06:24:43;;;;;;;3.53;2.25;;;15.80;99.90;;;;;;5007157;28;20043;-75
2022/06/21 06:27:45;;;;;;;5.45;2.40;;;16.00;99.90;;;;;;4978641;28;20939;-75
2022/06/21 06:30:15;;;;;;;5.78;2.38;;;16.20;99.90;;;;;;4975889;28;20062;-74
2022/06/21 06:33:01;;;;;;;4.28;2.47;;;16.40;99.90;;;;;;4976339;28;20038;-77
2022/06/21 06:35:27;;;;;;;3.70;2.53;;;16.50;99.90;;;;;;4974980;28;20039;-74
2022/06/21 06:37:53;;;;;;;3.10;2.33;;;16.60;99.90;;;;;;4978257;28;20058;-74
2022/06/21 06:40:26;;;;;;;4.22;2.63;;;16.70;98.70;;;;;;4976219;28;20428;-74
2022/06/21 06:43:00;;;;;;;3.92;2.30;;;16.80;98.70;;;;;;4975645;28;20038;-74
2022/06/21 06:45:31;;;;;;;5.45;2.28;;;17.00;98.80;;;;;;4976863;28;20094;-74
2022/06/21 06:48:03;;;;;;;7.15;2.25;;;17.30;97.30;;;;;;5008050;28;20110;-74
2022/06/21 06:50:39;;;;;;;4.18;2.40;;;17.50;95.60;;;;;;4975180;28;20035;-76
2022/06/21 06:53:22;;;;;;;4.15;1.98;;;17.70;94.40;;;;;;4975916;28;20027;-75
2022/06/21 06:55:55;;;;;;;3.15;1.80;;;17.90;92.60;;;;;;4976591;28;20031;-76
2022/06/21 06:58:51;;;;;;;4.35;2.25;;;18.10;94.00;;;;;;4976210;28;20119;-75
2022/06/21 07:01:22;;;;;;;5.53;1.95;;;18.30;93.00;;;;;;4977001;28;20067;-75
2022/06/21 07:03:53;;;;;;;4.88;1.90;;;18.40;91.00;;;;;;4976266;28;20035;-75
2022/06/21 07:06:31;;;;;;;2.85;1.70;;;18.50;91.50;;;;;;4974702;28;20042;-75
2022/06/21 07:09:02;;;;;;;4.68;1.80;;;18.70;90.00;;;;;;4974978;28;20118;-75
2022/06/21 07:11:50;;;;;;;4.22;1.90;;;18.80;89.40;;;;;;4973785;28;20130;-75
2022/06/21 07:14:20;;;;;;;3.50;1.95;;;19.10;88.60;;;;;;4974396;28;20039;-75
2022/06/21 07:16:51;;;;;;;5.75;1.67;;;19.30;88.40;;;;;;4975162;28;20028;-75
2022/06/21 07:19:17;;;;;;;2.95;1.63;;;19.40;87.30;;;;;;4974291;28;20036;-75
2022/06/21 07:21:42;;;;;;;4.68;2.20;;;19.50;86.10;;;;;;4974745;28;20031;-75
2022/06/21 07:24:18;;;;;;;4.35;1.65;;;19.70;83.40;;;;;;5006482;28;20035;-75
2022/06/21 07:26:49;;;;;;;3.95;1.88;;;19.80;86.00;;;;;;4974149;28;20031;-75
2022/06/21 07:29:47;;;;;;;3.78;1.70;;;20.10;82.40;;;;;;5005019;28;20535;-76
2022/06/21 07:32:19;;;;;;;10.10;5.45;;;20.30;83.00;;;;;;4975800;28;20095;-75
2022/06/21 07:35:02;;;;;;;4.97;2.33;;;20.60;82.10;;;;;;4972834;28;20031;-75
2022/06/21 07:37:41;;;;;;;5.35;1.90;;;21.00;82.40;;;;;;4975300;28;20039;-76
2022/06/21 07:40:09;;;;;;;4.53;1.67;;;21.20;78.20;;;;;;4974951;28;20162;-75
2022/06/21 07:42:50;;;;;;;2.88;1.80;;;21.50;78.20;;;;;;4973885;28;20031;-75
2022/06/21 07:45:22;;;;;;;4.47;1.70;;;21.70;76.60;;;;;;5005474;28;20035;-75
2022/06/21 07:48:01;;;;;;;5.10;1.63;;;22.00;78.30;;;;;;4975176;28;20028;-75
2022/06/21 07:50:47;;;;;;;4.75;2.10;;;22.40;75.70;;;;;;4974091;28;20074;-75
2022/06/21 07:53:44;;;;;;;4.32;1.73;;;22.50;73.20;;;;;;4975154;28;20118;-77
2022/06/21 07:56:18;;;;;;;3.45;1.50;;;22.60;74.40;;;;;;4976844;28;20066;-76
2022/06/21 07:59:07;;;;;;;4.22;1.80;;;23.10;73.20;;;;;;4982634;28;20940;-77
2022/06/21 08:07:35;;;;;;;5.20;1.70;;;22.30;73.20;;;;;;4974611;28;20035;-77
2022/06/21 08:10:38;;;;;;;4.05;1.50;;;21.80;74.60;;;;;;4973608;28;20078;-77
2022/06/21 08:13:04;;;;;;;3.13;1.80;;;21.70;76.00;;;;;;5005432;28;20485;-76
2022/06/21 08:15:37;;;;;;;8.38;1.70;;;21.80;75.00;;;;;;4974840;28;20043;-77
2022/06/21 08:18:07;;;;;;;4.70;1.75;;;22.00;73.90;;;;;;4973626;28;20031;-76
2022/06/21 08:20:43;;;;;;;2.90;1.60;;;22.00;76.80;;;;;;4975082;28;20031;-77
2022/06/21 08:23:22;;;;;;;5.80;1.50;;;22.10;75.80;;;;;;4974437;28;20028;-77
2022/06/21 08:26:13;;;;;;;4.40;1.60;;;21.90;76.90;;;;;;4974135;28;20099;-77
2022/06/21 08:28:54;;;;;;;3.53;1.67;;;21.80;75.90;;;;;;5004379;28;20127;-76
2022/06/21 08:31:32;;;;;;;4.55;1.60;;;22.40;75.30;;;;;;4973094;28;20083;-76
2022/06/21 08:34:08;;;;;;;4.40;1.55;;;22.90;74.90;;;;;;4971455;28;20074;-76
2022/06/21 08:36:48;;;;;;;4.68;1.65;;;22.90;73.60;;;;;;4974056;28;20038;-76
2022/06/21 08:39:25;;;;;;;6.18;1.75;;;22.80;75.20;;;;;;4972943;28;20086;-76
2022/06/21 08:42:02;;;;;;;6.18;1.63;;;22.90;72.20;;;;;;4972851;28;20059;-76
2022/06/21 08:44:42;;;;;;;8.80;2.05;;;23.10;72.70;;;;;;4973626;28;20031;-75
2022/06/21 08:47:40;;;;;;;9.93;1.90;;;23.00;71.80;;;;;;5004999;28;20075;-76
2022/06/21 08:50:41;;;;;;;4.90;2.10;;;23.30;72.60;;;;;;4981722;28;20178;-76
2022/06/21 08:53:16;;;;;;;5.90;1.80;;;23.50;71.60;;;;;;4972651;28;20039;-76
2022/06/21 08:56:04;;;;;;;7.80;1.70;;;23.60;71.10;;;;;;4973863;28;20046;-76
2022/06/21 08:59:05;;;;;;;6.55;1.90;;;23.80;70.30;;;;;;4973567;28;20036;-76
2022/06/21 09:01:46;;;;;;;5.53;1.98;;;23.70;69.90;;;;;;4972881;28;20130;-76
2022/06/21 09:04:44;;;;;;;3.83;1.75;;;24.00;71.00;;;;;;4972774;28;20055;-76
2022/06/21 09:07:42;;;;;;;3.53;1.90;;;24.30;68.20;;;;;;4971907;28;20035;-76
2022/06/21 09:10:25;;;;;;;2.20;1.48;;;24.50;67.50;;;;;;4973529;28;20051;-76
2022/06/21 09:13:31;;;;;;;5.53;1.80;;;24.70;66.70;;;;;;4973677;28;20031;-76
2022/06/21 09:15:57;;;;;;;8.13;1.70;;;24.50;65.90;;;;;;4986625;28;20047;-76
2022/06/21 09:18:31;;;;;;;3.03;1.63;;;24.50;66.40;;;;;;4970684;28;20027;-76
2022/06/21 09:21:09;;;;;;;3.50;1.70;;;25.20;66.30;;;;;;4972533;28;20042;-76
2022/06/21 09:23:58;;;;;;;4.03;1.60;;;25.20;64.80;;;;;;4972904;28;20509;-76
2022/06/21 09:26:49;;;;;;;4.68;1.70;;;24.90;64.00;;;;;;4973221;28;20039;-76
2022/06/21 09:29:47;;;;;;;4.72;1.88;;;24.90;65.20;;;;;;4973283;28;20035;-76
2022/06/21 09:32:19;;;;;;;4.28;1.45;;;24.80;64.20;;;;;;4971390;28;20111;-76
2022/06/21 09:34:56;;;;;;;5.22;1.90;;;25.00;64.30;;;;;;4972878;28;20106;-76
2022/06/21 09:37:52;;;;;;;6.97;1.73;;;25.00;63.90;;;;;;4972594;28;20122;-76
2022/06/21 09:40:26;;;;;;;2.25;1.42;;;25.20;65.10;;;;;;4971948;28;20035;-76
2022/06/21 09:43:21;;;;;;;2.78;1.60;;;25.10;63.00;;;;;;4973455;28;20035;-77
2022/06/21 09:45:53;;;;;;;2.80;1.23;;;25.40;62.10;;;;;;4972397;28;20039;-77
2022/06/21 09:49:04;;;;;;;4.45;1.50;;;25.40;61.10;;;;;;4971809;28;20047;-75
2022/06/21 09:52:00;;;;;;;2.53;1.42;;;25.20;59.90;;;;;;4972624;28;20027;-77
2022/06/21 09:54:36;;;;;;;3.63;1.45;;;25.40;60.30;;;;;;4973327;28;20196;-76
2022/06/21 09:57:10;;;;;;;2.88;1.50;;;25.90;60.80;;;;;;4972038;28;20086;-76
2022/06/21 09:59:54;;;;;;;2.88;1.50;;;25.40;60.40;;;;;;4972379;28;20147;-77
2022/06/21 10:02:50;;;;;;;3.20;1.58;;;25.50;62.30;;;;;;4976555;28;20132;-81
2022/06/21 10:05:37;;;;;;;4.07;1.63;;;25.90;59.20;;;;;;4970547;28;20051;-76
2022/06/21 10:08:09;;;;;;;3.13;1.50;;;27.00;59.20;;;;;;4972955;28;20035;-76
2022/06/21 10:10:52;;;;;;;3.03;1.40;;;27.30;57.80;;;;;;4972049;28;20050;-76
2022/06/21 10:13:42;;;;;;;3.15;1.67;;;26.80;58.10;;;;;;4973102;28;20091;-75
2022/06/21 10:19:10;;;;;;;2.20;1.30;;;26.10;58.30;;;;;;4962407;28;20488;-75
2022/06/21 10:22:21;;;;;;;4.35;1.75;;;25.80;59.80;;;;;;4983390;28;20196;-74
2022/06/21 10:24:59;;;;;;;2.80;1.67;;;26.00;60.20;;;;;;4942824;28;20134;-72
2022/06/21 10:27:43;;;;;;;2.00;1.50;;;26.40;61.60;;;;;;4972362;28;20086;-72
2022/06/21 10:30:29;;;;;;;3.20;1.50;;;26.60;58.90;;;;;;4972229;28;20122;-71
2022/06/21 10:33:14;;;;;;;5.38;1.67;;;27.00;58.90;;;;;;4972862;28;20075;-71
2022/06/21 10:35:56;;;;;;;3.55;1.40;;;27.50;60.50;;;;;;4975536;28;20031;-71
2022/06/21 10:38:37;;;;;;;3.55;1.45;;;27.60;58.60;;;;;;4975730;28;20119;-73
2022/06/21 10:41:32;;;;;;;3.60;1.42;;;27.60;57.90;;;;;;4976369;28;20100;-80
2022/06/21 10:44:11;;;;;;;2.60;1.65;;;27.40;59.20;;;;;;4975909;28;20039;-71
2022/06/21 10:46:54;;;;;;;3.30;1.50;;;27.50;60.00;;;;;;4957764;28;20070;-71
2022/06/21 10:49:42;;;;;;;3.72;1.67;;;27.90;57.80;;;;;;4974376;28;20584;-71
2022/06/21 10:52:13;;;;;;;6.43;2.13;;;28.10;58.10;;;;;;4975628;28;20043;-72
2022/06/21 10:55:04;;;;;;;3.75;1.50;;;28.10;57.80;;;;;;4957893;28;20038;-78
2022/06/21 10:58:01;;;;;;;3.67;1.67;;;27.90;56.70;;;;;;4975414;28;20055;-74
2022/06/21 11:03:55;;;;;;;4.65;1.40;;;28.00;56.50;;;;;;4976185;28;20035;-72
2022/06/21 11:06:36;;;;;;;3.92;1.60;;;28.20;56.70;;;;;;4975936;28;20062;-71
2022/06/21 11:09:27;;;;;;;2.72;1.48;;;28.50;59.40;;;;;;4974339;28;20039;-72
2022/06/21 11:15:33;;;;;;;3.08;1.65;;;28.20;57.00;;;;;;4971840;28;20031;-73
2022/06/21 11:18:22;;;;;;;2.33;1.35;;;28.10;56.50;;;;;;4957186;28;20508;-73
2022/06/21 11:20:47;;;;;;;3.10;1.40;;;28.10;56.70;;;;;;4957769;28;20042;-74
2022/06/21 11:23:18;;;;;;;2.22;1.40;;;28.40;57.00;;;;;;4957210;28;20039;-73
2022/06/21 11:25:58;;;;;;;3.80;1.60;;;28.70;57.40;;;;;;4974842;28;20106;-71
2022/06/21 11:28:46;;;;;;;2.95;1.48;;;29.10;55.00;;;;;;4957480;28;20118;-71
2022/06/21 11:31:50;;;;;;;5.20;1.40;;;29.00;56.50;;;;;;4975101;28;20516;-72
2022/06/21 11:34:15;;;;;;;3.55;1.65;;;29.40;54.80;;;;;;4966531;28;20047;-72
2022/06/21 11:37:00;;;;;;;3.65;1.52;;;29.50;54.50;;;;;;4957296;28;20047;-76
2022/06/21 11:39:55;;;;;;;4.53;1.95;;;29.50;54.30;;;;;;4974211;28;20478;-72
2022/06/21 11:42:31;;;;;;;5.18;1.80;;;29.60;54.50;;;;;;4957471;28;20043;-74
2022/06/21 11:45:08;;;;;;;3.22;1.80;;;29.60;57.20;;;;;;4974300;28;20501;-71
2022/06/21 11:48:08;;;;;;;3.72;1.70;;;29.30;55.50;;;;;;4956852;28;20509;-71
2022/06/21 11:50:43;;;;;;;3.38;1.73;;;29.80;54.10;;;;;;4946483;28;20039;-71
2022/06/21 11:53:18;;;;;;;4.50;1.70;;;29.60;56.10;;;;;;4974970;28;20098;-72
2022/06/21 11:55:46;;;;;;;2.17;1.70;;;30.00;54.30;;;;;;4956974;28;20497;-72
2022/06/21 11:58:25;;;;;;;5.03;1.60;;;30.20;54.20;;;;;;4975325;28;20035;-71
2022/06/21 12:01:12;;;;;;;3.67;1.80;;;29.90;54.80;;;;;;4957848;28;20581;-71
2022/06/21 12:03:47;;;;;;;2.63;1.70;;;29.90;54.20;;;;;;4975775;28;20082;-74
2022/06/21 12:06:29;;;;;;;4.95;1.90;;;30.00;54.20;;;;;;4957779;28;20116;-71
2022/06/21 12:09:07;;;;;;;3.50;1.70;;;29.80;54.80;;;;;;4957278;28;20416;-72
2022/06/21 12:12:07;;;;;;;4.88;2.00;;;29.70;55.20;;;;;;4975449;28;20400;-72
2022/06/21 12:14:45;;;;;;;2.55;1.98;;;29.90;54.80;;;;;;4967650;28;20069;-71
2022/06/21 12:17:22;;;;;;;4.20;2.03;;;30.50;54.60;;;;;;4973313;28;20036;-71
2022/06/21 12:19:55;;;;;;;4.55;2.05;;;30.20;53.20;;;;;;4974585;28;20039;-74
2022/06/21 12:22:31;;;;;;;2.33;1.63;;;30.20;54.30;;;;;;4973905;28;20035;-72
2022/06/21 12:24:57;;;;;;;5.95;1.92;;;30.20;53.60;;;;;;4974526;28;20047;-71
2022/06/21 12:27:23;;;;;;;4.28;2.47;;;30.30;55.50;;;;;;4974147;28;20027;-71
2022/06/21 12:29:49;;;;;;;3.28;1.60;;;30.30;54.70;;;;;;4973975;28;20043;-72
2022/06/21 12:32:20;;;;;;;3.00;1.60;;;30.70;53.90;;;;;;4974360;28;20059;-71
2022/06/21 12:35:01;;;;;;;3.40;1.77;;;31.10;52.40;;;;;;4973809;28;20039;-73
2022/06/21 12:37:40;;;;;;;3.05;1.92;;;31.20;53.30;;;;;;4973387;28;20027;-72
2022/06/21 12:40:29;;;;;;;3.25;1.85;;;31.60;52.10;;;;;;4974167;28;20031;-75
2022/06/21 12:43:24;;;;;;;4.03;1.85;;;31.60;52.20;;;;;;4974225;28;20696;-72
2022/06/21 12:46:01;;;;;;;4.72;2.28;;;31.70;52.00;;;;;;4974040;28;20042;-71
2022/06/21 12:48:41;;;;;;;5.10;2.15;;;31.80;52.50;;;;;;4974097;28;20087;-72
2022/06/21 12:51:36;;;;;;;4.28;1.73;;;31.50;53.20;;;;;;4956264;28;20780;-73
2022/06/21 12:54:15;;;;;;;4.07;2.10;;;30.90;51.80;;;;;;4973694;28;20037;-72
2022/06/21 12:57:00;;;;;;;3.53;1.80;;;30.60;54.30;;;;;;4972875;28;20041;-74
2022/06/21 12:59:59;;;;;;;5.15;2.17;;;30.60;53.10;;;;;;4973949;28;20035;-77
2022/06/21 13:02:54;;;;;;;4.43;1.92;;;30.40;53.90;;;;;;4973632;28;20587;-72
2022/06/21 13:05:47;;;;;;;2.10;1.65;;;30.30;54.90;;;;;;4941091;28;20044;-76
2022/06/21 13:09:00;;;;;;;2.80;2.17;;;31.30;54.00;;;;;;4972790;28;20035;-71
2022/06/21 13:11:52;;;;;;;3.60;2.00;;;31.80;52.60;;;;;;4973275;28;20476;-71
2022/06/21 13:14:46;;;;;;;4.32;1.67;;;33.20;50.30;;;;;;4955616;28;20035;-72
2022/06/21 13:17:54;;;;;;;5.30;1.80;;;33.50;48.50;;;;;;4972105;28;20062;-72
2022/06/21 13:20:49;;;;;;;2.33;2.00;;;33.50;48.20;;;;;;4974030;28;20167;-72
2022/06/21 13:23:41;;;;;;;3.28;2.15;;;34.00;48.60;;;;;;4955454;28;20039;-71
2022/06/21 13:26:33;;;;;;;7.65;1.98;;;34.10;48.40;;;;;;4973282;28;20115;-72
2022/06/21 13:29:18;;;;;;;3.88;2.17;;;34.90;49.10;;;;;;4973424;28;20035;-72
2022/06/21 13:31:58;;;;;;;5.47;2.10;;;35.10;47.40;;;;;;4955325;28;20035;-74
2022/06/21 13:34:40;;;;;;;5.57;2.10;;;35.90;45.10;;;;;;4972751;28;20476;-72
2022/06/21 13:37:35;;;;;;;4.35;1.98;;;37.00;44.30;;;;;;4972826;28;20114;-74
2022/06/21 13:40:38;;;;;;;5.05;2.10;;;36.70;43.40;;;;;;4973409;28;20071;-72
2022/06/21 13:43:08;;;;;;;5.15;1.90;;;36.40;45.80;;;;;;4955026;28;20827;-72
2022/06/21 13:45:50;;;;;;;2.90;2.13;;;36.60;46.00;;;;;;4972583;28;20114;-75
2022/06/21 13:48:40;;;;;;;7.38;2.38;;;36.60;45.50;;;;;;4972775;28;20035;-72
2022/06/21 13:51:37;;;;;;;5.40;2.10;;;35.50;45.30;;;;;;4972634;28;20090;-72
2022/06/21 13:54:29;;;;;;;4.15;2.28;;;36.40;45.40;;;;;;4972678;28;20031;-76
2022/06/21 13:57:25;;;;;;;3.95;2.03;;;37.00;45.00;;;;;;4948789;28;20047;-72
2022/06/21 13:59:52;;;;;;;5.45;2.05;;;37.00;45.50;;;;;;4973199;28;20110;-73
2022/06/21 14:02:30;;;;;;;3.58;2.00;;;37.30;44.20;;;;;;4972913;28;20043;-73
2022/06/21 14:05:05;;;;;;;4.35;2.28;;;36.90;42.70;;;;;;4972603;28;20031;-73
2022/06/21 14:08:15;;;;;;;3.40;2.00;;;35.40;44.00;;;;;;4972976;28;20185;-79
2022/06/21 14:10:51;;;;;;;3.67;2.00;;;35.10;48.80;;;;;;4976474;28;20501;-78
2022/06/21 14:13:46;;;;;;;3.35;2.20;;;36.70;46.30;;;;;;4958814;28;20122;-74
2022/06/21 14:16:25;;;;;;;3.75;2.10;;;37.00;44.10;;;;;;4975301;28;20039;-73
2022/06/21 14:19:00;;;;;;;2.83;2.17;;;36.80;44.10;;;;;;4975897;28;20048;-73
2022/06/21 14:21:42;;;;;;;4.38;2.22;;;38.00;43.20;;;;;;4976308;28;20027;-75
2022/06/21 14:24:22;;;;;;;6.13;2.10;;;37.90;43.50;;;;;;4976338;28;20031;-75
2022/06/21 14:27:17;;;;;;;2.92;2.40;;;38.30;43.30;;;;;;4976275;28;20087;-76
2022/06/21 14:30:05;;;;;;;5.82;2.45;;;38.20;42.20;;;;;;4974440;28;20100;-72
2022/06/21 14:33:07;;;;;;;6.38;2.50;;;38.30;43.80;;;;;;4976621;28;20033;-72
2022/06/21 14:35:40;;;;;;;2.78;2.10;;;38.70;42.20;;;;;;4944101;28;20114;-78
2022/06/21 14:38:24;;;;;;;5.45;2.15;;;39.50;41.10;;;;;;4976371;28;20031;-73
2022/06/21 14:41:16;;;;;;;3.53;2.42;;;39.20;40.50;;;;;;4976132;28;20090;-73
2022/06/21 14:43:56;;;;;;;3.28;2.35;;;38.70;40.60;;;;;;4975793;28;20039;-73
2022/06/21 14:46:30;;;;;;;5.53;2.67;;;38.20;41.10;;;;;;4976061;28;20032;-73
2022/06/21 14:49:14;;;;;;;3.97;2.13;;;38.40;42.00;;;;;;4958685;28;20062;-72
2022/06/21 14:51:59;;;;;;;4.82;2.50;;;38.20;40.80;;;;;;4975753;28;20067;-73
2022/06/21 14:54:46;;;;;;;4.88;2.30;;;38.80;41.00;;;;;;4975276;28;20035;-72
2022/06/21 14:57:40;;;;;;;3.30;2.33;;;39.40;40.50;;;;;;4975951;28;20036;-72
2022/06/21 15:00:21;;;;;;;4.30;2.42;;;39.30;42.70;;;;;;4976037;28;20511;-76
2022/06/21 15:03:05;;;;;;;3.50;2.20;;;39.50;39.40;;;;;;4958029;28;20058;-83
2022/06/21 15:05:46;;;;;;;4.53;2.38;;;40.80;39.40;;;;;;4975875;28;20454;-73
2022/06/21 15:08:35;;;;;;;5.30;2.58;;;41.60;39.10;;;;;;4975235;28;20035;-76
2022/06/21 15:11:22;;;;;;;3.60;2.25;;;41.90;39.10;;;;;;4958849;28;20361;-79
2022/06/21 15:14:03;;;;;;;3.50;2.50;;;41.00;38.80;;;;;;4975729;28;20035;-75
2022/06/21 15:16:42;;;;;;;3.28;2.40;;;41.90;38.70;;;;;;4973729;28;20509;-74
2022/06/21 15:22:13;;;;;;;5.03;2.90;;;41.30;39.90;;;;;;4974982;28;20043;-73
2022/06/21 15:24:39;;;;;;;5.05;2.85;;;40.70;39.60;;;;;;4957373;28;20517;-74
2022/06/21 15:27:17;;;;;;;3.67;2.58;;;40.90;39.00;;;;;;4974552;28;20050;-73
2022/06/21 15:29:53;;;;;;;3.92;2.35;;;40.70;37.90;;;;;;4958325;28;20039;-73
2022/06/21 15:32:26;;;;;;;4.13;2.50;;;40.60;39.00;;;;;;4974798;28;20071;-74
2022/06/21 15:34:54;;;;;;;3.20;2.65;;;40.80;39.00;;;;;;4975141;28;20036;-74
2022/06/21 15:37:54;;;;;;;9.75;3.25;;;41.30;39.20;;;;;;4955692;28;20041;-74
2022/06/21 15:40:30;;;;;;;5.82;2.70;;;41.90;38.40;;;;;;4974495;28;20036;-74
2022/06/21 15:43:10;;;;;;;4.63;2.70;;;40.80;41.10;;;;;;4974050;28;20032;-74
2022/06/21 15:45:48;;;;;;;5.85;2.42;;;40.80;38.90;;;;;;4974893;28;20042;-74
2022/06/21 15:51:09;;;;;;;2.97;2.67;;;40.90;38.30;;;;;;4974671;28;20552;-75
2022/06/21 15:53:54;;;;;;;4.25;2.42;;;41.80;37.70;;;;;;4974353;28;20023;-74
2022/06/21 15:56:41;;;;;;;2.90;2.50;;;40.80;39.40;;;;;;4973907;28;20066;-75
2022/06/21 15:59:27;;;;;;;5.25;2.65;;;41.60;38.50;;;;;;4956776;28;20745;-74
2022/06/21 16:02:01;;;;;;;3.20;2.90;;;41.70;40.80;;;;;;4974307;28;20090;-75
2022/06/21 16:05:07;;;;;;;4.22;2.70;;;41.00;38.40;;;;;;4974443;28;20115;-74
2022/06/21 16:07:44;;;;;;;3.60;2.65;;;40.70;37.30;;;;;;4974493;28;20058;-74
2022/06/21 16:10:30;;;;;;;7.25;3.15;;;41.50;38.50;;;;;;4974152;28;20043;-74
2022/06/21 16:13:02;;;;;;;5.20;2.60;;;42.20;36.80;;;;;;4974132;28;20039;-74
2022/06/21 16:15:33;;;;;;;4.90;2.70;;;40.80;38.40;;;;;;4974509;28;20170;-74
2022/06/21 16:18:03;;;;;;;5.75;2.60;;;40.70;40.40;;;;;;4999076;23;20058;-80
2022/06/21 16:20:44;;;;;;;4.47;2.97;;;42.30;38.00;;;;;;4986144;28;20039;-76
2022/06/21 16:23:15;;;;;;;5.93;3.05;;;40.50;37.90;;;;;;4992295;28;20043;-75
2022/06/21 16:26:13;;;;;;;4.82;2.80;;;40.60;38.20;;;;;;4992858;28;20054;-76
2022/06/21 16:28:58;;;;;;;3.35;2.60;;;40.40;38.40;;;;;;4968728;28;20071;-80
2022/06/21 16:34:22;;;;;;;7.25;2.80;;;36.60;41.60;;;;;;4977834;28;20066;-76
2022/06/21 16:36:57;;;;;;;4.80;2.50;;;36.10;44.50;;;;;;4977878;28;20098;-79
2022/06/21 16:39:33;;;;;;;4.18;2.40;;;35.10;44.90;;;;;;4977808;28;20039;-77
2022/06/21 16:45:06;;;;;;;7.38;2.90;;;33.00;49.70;;;;;;4971790;28;20576;-76
2022/06/21 16:47:40;;;;;;;5.80;3.10;;;32.30;50.70;;;;;;4975718;28;20143;-75
2022/06/21 16:50:30;;;;;;;4.63;2.65;;;32.20;51.10;;;;;;4969287;28;20072;-79
2022/06/21 16:53:15;;;;;;;6.10;2.90;;;31.80;52.00;;;;;;4924620;28;20078;-73
2022/06/21 16:56:02;;;;;;;5.93;2.58;;;31.60;51.40;;;;;;4974083;28;20530;-75
2022/06/21 16:58:39;;;;;;;6.43;2.90;;;31.40;56.30;;;;;;4975443;28;20042;-77
2022/06/21 17:01:05;;;;;;;5.47;2.58;;;30.80;53.10;;;;;;4976568;28;20035;-76
2022/06/21 17:03:44;;;;;;;6.65;2.88;;;30.50;53.80;;;;;;4974406;28;20031;-82
2022/06/21 17:06:43;;;;;;;4.72;3.03;;;30.60;53.70;;;;;;4974447;28;20035;-77
2022/06/21 17:09:32;;;;;;;6.38;2.53;;;30.60;53.20;;;;;;4973048;28;20047;-77
2022/06/21 17:12:05;;;;;;;3.95;2.70;;;30.30;53.60;;;;;;4973903;28;20046;-77
2022/06/21 17:14:45;;;;;;;5.00;2.92;;;30.30;58.50;;;;;;4973177;28;20043;-77
2022/06/21 17:17:33;;;;;;;4.43;2.80;;;29.90;54.60;;;;;;4972946;28;20342;-76
2022/06/21 17:20:23;;;;;;;4.70;2.85;;;29.80;56.50;;;;;;4973194;28;20043;-77
2022/06/21 17:22:58;;;;;;;5.18;2.85;;;29.80;56.60;;;;;;4973600;28;20047;-76
2022/06/21 17:25:24;;;;;;;4.25;2.83;;;30.00;57.30;;;;;;4972601;28;20039;-76
2022/06/21 17:27:49;;;;;;;4.72;2.83;;;29.90;56.40;;;;;;4972929;28;20043;-76
2022/06/21 17:30:24;;;;;;;5.00;2.92;;;29.60;58.50;;;;;;4973209;28;20050;-76
2022/06/21 17:33:09;;;;;;;7.07;3.20;;;29.50;57.60;;;;;;4972662;28;20043;-76
2022/06/21 17:35:45;;;;;;;5.80;3.00;;;29.30;58.90;;;;;;4973150;28;20476;-76
2022/06/21 17:38:26;;;;;;;5.43;3.00;;;29.20;57.60;;;;;;4973060;28;20039;-77
2022/06/21 17:41:16;;;;;;;6.65;3.10;;;29.00;58.80;;;;;;4952612;28;20067;-75
2022/06/21 17:43:56;;;;;;;4.80;2.80;;;28.80;59.70;;;;;;4953945;28;20031;-80
2022/06/21 17:46:24;;;;;;;6.43;3.00;;;28.60;60.10;;;;;;4972109;28;20118;-76
2022/06/21 17:49:06;;;;;;;4.97;3.05;;;28.50;63.90;;;;;;4976254;28;20047;-76
2022/06/21 17:51:37;;;;;;;5.78;2.80;;;28.30;61.70;;;;;;4975131;28;20092;-76
2022/06/21 17:54:06;;;;;;;7.47;2.80;;;28.30;60.00;;;;;;4975653;28;20066;-76
2022/06/21 17:56:39;;;;;;;4.97;2.72;;;28.20;61.20;;;;;;4976363;28;20059;-75
2022/06/21 17:59:13;;;;;;;5.18;2.78;;;28.40;63.10;;;;;;4975851;28;20485;-76
2022/06/21 18:02:04;;;;;;;5.30;3.00;;;28.30;63.60;;;;;;4976926;28;20046;-75
2022/06/21 18:04:48;;;;;;;6.40;2.90;;;27.90;62.40;;;;;;4976370;28;20043;-76
2022/06/21 18:07:40;;;;;;;4.50;2.75;;;27.70;64.10;;;;;;4978486;28;20078;-75
2022/06/21 18:10:14;;;;;;;4.10;2.83;;;27.40;66.00;;;;;;4979389;28;20125;-76
2022/06/21 18:12:49;;;;;;;3.15;2.40;;;27.20;65.70;;;;;;4979395;28;20033;-75
2022/06/21 18:15:16;;;;;;;4.53;2.78;;;27.10;66.20;;;;;;4979244;28;20035;-75
2022/06/21 18:17:54;;;;;;;5.15;2.80;;;26.90;67.60;;;;;;4976556;28;20035;-75
2022/06/21 18:20:44;;;;;;;5.43;3.00;;;26.80;67.90;;;;;;4976242;28;20039;-75
2022/06/21 18:23:31;;;;;;;5.65;3.10;;;26.70;67.50;;;;;;4977572;28;20035;-75